createdAt,value
2018-10-05T00:00:23.116Z,0.00
2018-10-05T00:01:23.844Z,0.00
2018-10-05T00:02:23.842Z,0.00
2018-10-05T00:03:22.988Z,0.00
2018-10-05T00:04:23.401Z,0.00
2018-10-05T00:05:22.933Z,0.00
2018-10-05T00:06:23.844Z,0.00
2018-10-05T00:07:22.876Z,0.00
2018-10-05T00:08:22.892Z,0.00
2018-10-05T00:09:23.345Z,0.00
2018-10-05T00:10:22.839Z,0.00
2018-10-05T00:11:23.441Z,0.00
2018-10-05T00:12:22.759Z,0.00
2018-10-05T00:13:22.749Z,0.00
2018-10-05T00:14:22.680Z,0.00
2018-10-05T00:15:23.350Z,0.00
2018-10-05T00:16:22.914Z,0.00
2018-10-05T00:17:22.601Z,0.00
2018-10-05T00:18:23.345Z,0.00
2018-10-05T00:19:25.362Z,0.00
2018-10-05T00:20:23.421Z,0.00
2018-10-05T00:21:22.524Z,0.00
2018-10-05T00:22:22.456Z,0.00
2018-10-05T00:23:22.423Z,0.00
2018-10-05T00:24:22.396Z,0.00
2018-10-05T00:25:23.352Z,0.00
2018-10-05T00:26:22.413Z,0.00
2018-10-05T00:27:22.314Z,0.00
2018-10-05T00:28:22.289Z,0.00
2018-10-05T00:29:22.253Z,0.00
2018-10-05T00:30:22.851Z,0.00
2018-10-05T00:31:22.244Z,0.00
2018-10-05T00:32:22.268Z,0.00
2018-10-05T00:33:22.142Z,0.00
2018-10-05T00:34:22.848Z,0.00
2018-10-05T00:35:22.083Z,0.00
2018-10-05T00:36:22.852Z,0.00
2018-10-05T00:37:22.072Z,0.00
2018-10-05T00:38:21.996Z,0.00
2018-10-05T00:39:21.973Z,0.00
2018-10-05T00:40:22.848Z,0.00
2018-10-05T00:41:22.855Z,0.00
2018-10-05T00:42:22.405Z,0.00
2018-10-05T00:43:21.909Z,0.00
2018-10-05T00:44:22.349Z,0.00
2018-10-05T00:45:21.807Z,0.00
2018-10-05T00:46:22.350Z,0.00
2018-10-05T00:47:21.748Z,0.00
2018-10-05T00:48:21.907Z,0.00
2018-10-05T00:49:22.380Z,0.00
2018-10-05T00:50:21.661Z,0.00
2018-10-05T00:51:22.354Z,0.00
2018-10-05T00:52:22.356Z,0.00
2018-10-05T00:53:21.679Z,0.00
2018-10-05T00:54:22.351Z,0.00
2018-10-05T00:55:22.383Z,0.00
2018-10-05T00:56:21.512Z,0.00
2018-10-05T00:57:22.353Z,0.00
2018-10-05T00:58:21.498Z,0.00
2018-10-05T00:59:21.410Z,0.00
2018-10-05T01:00:21.376Z,0.00
2018-10-05T01:01:21.352Z,0.00
2018-10-05T01:02:21.325Z,0.00
2018-10-05T01:03:21.402Z,0.00
2018-10-05T01:04:21.406Z,0.00
2018-10-05T01:05:21.855Z,0.00
2018-10-05T01:06:21.943Z,0.00
2018-10-05T01:07:21.868Z,0.00
2018-10-05T01:08:21.285Z,0.00
2018-10-05T01:09:21.123Z,0.00
2018-10-05T01:10:21.407Z,0.00
2018-10-05T01:11:21.868Z,0.00
2018-10-05T01:12:21.861Z,0.00
2018-10-05T01:16:24.079Z,0.00
2018-10-05T01:17:24.010Z,0.00
2018-10-05T01:18:24.029Z,0.00
2018-10-05T01:19:24.004Z,0.00
2018-10-05T01:20:24.727Z,0.00
2018-10-05T01:21:23.900Z,0.00
2018-10-05T01:22:23.868Z,0.00
2018-10-05T01:23:24.759Z,0.00
2018-10-05T01:24:23.924Z,0.00
2018-10-05T01:25:23.785Z,0.00
2018-10-05T01:26:23.752Z,0.00
2018-10-05T01:27:24.227Z,0.00
2018-10-05T01:28:23.744Z,0.00
2018-10-05T01:29:23.709Z,0.00
2018-10-05T01:30:24.234Z,0.00
2018-10-05T01:31:24.225Z,0.00
2018-10-05T01:32:23.588Z,0.00
2018-10-05T01:33:23.599Z,0.00
2018-10-05T01:34:24.225Z,0.00
2018-10-05T01:35:24.225Z,0.00
2018-10-05T01:36:23.470Z,0.00
2018-10-05T01:37:23.442Z,0.00
2018-10-05T01:38:23.774Z,0.00
2018-10-05T01:39:23.382Z,0.00
2018-10-05T01:40:23.398Z,0.00
2018-10-05T01:41:23.778Z,0.00
2018-10-05T01:42:23.295Z,0.00
2018-10-05T01:43:23.267Z,0.00
2018-10-05T01:44:24.226Z,0.00
2018-10-05T01:45:23.248Z,0.00
2018-10-05T01:46:23.727Z,0.00
2018-10-05T01:47:23.225Z,0.00
2018-10-05T01:48:23.734Z,0.00
2018-10-05T01:49:23.780Z,0.00
2018-10-05T01:50:23.288Z,0.00
2018-10-05T01:51:23.039Z,0.00
2018-10-05T01:52:23.731Z,0.00
2018-10-05T01:53:23.729Z,0.00
2018-10-05T01:54:22.953Z,0.00
2018-10-05T01:55:23.282Z,0.00
2018-10-05T01:56:22.892Z,0.00
2018-10-05T01:57:23.730Z,0.00
2018-10-05T01:58:22.836Z,0.00
2018-10-05T01:59:23.730Z,0.00
2018-10-05T02:00:23.280Z,0.00
2018-10-05T02:01:23.730Z,0.00
2018-10-05T02:02:22.788Z,0.00
2018-10-05T02:03:22.690Z,0.00
2018-10-05T02:04:23.298Z,0.00
2018-10-05T02:05:22.788Z,0.00
2018-10-05T02:06:22.604Z,0.00
2018-10-05T02:07:22.606Z,0.00
2018-10-05T02:08:22.545Z,0.00
2018-10-05T02:09:22.530Z,0.00
2018-10-05T02:10:22.546Z,0.00
2018-10-05T02:11:23.247Z,0.00
2018-10-05T02:12:22.439Z,0.00
2018-10-05T02:13:22.460Z,0.00
2018-10-05T02:14:22.380Z,0.00
2018-10-05T02:15:22.346Z,0.00
2018-10-05T02:16:23.238Z,0.00
2018-10-05T02:17:22.293Z,0.00
2018-10-05T02:18:22.310Z,0.00
2018-10-05T02:19:22.299Z,0.00
2018-10-05T02:20:22.207Z,0.00
2018-10-05T02:21:22.732Z,0.00
2018-10-05T02:22:22.148Z,0.00
2018-10-05T02:23:22.738Z,0.00
2018-10-05T02:24:22.134Z,0.00
2018-10-05T02:25:22.065Z,0.00
2018-10-05T02:26:22.050Z,0.00
2018-10-05T02:27:22.324Z,0.00
2018-10-05T02:28:21.982Z,0.00
2018-10-05T02:29:21.946Z,0.00
2018-10-05T02:30:21.934Z,0.00
2018-10-05T02:31:21.890Z,0.00
2018-10-05T02:32:21.910Z,0.00
2018-10-05T02:33:22.738Z,0.00
2018-10-05T02:34:21.805Z,0.00
2018-10-05T02:35:22.289Z,0.00
2018-10-05T02:36:21.782Z,0.00
2018-10-05T02:37:21.721Z,0.00
2018-10-05T02:38:21.790Z,0.00
2018-10-05T02:39:22.237Z,0.00
2018-10-05T02:40:21.679Z,0.00
2018-10-05T02:41:21.922Z,0.00
2018-10-05T02:42:21.578Z,0.00
2018-10-05T02:43:21.548Z,0.00
2018-10-05T02:44:21.522Z,0.00
2018-10-05T02:45:22.237Z,0.00
2018-10-05T02:46:21.510Z,0.00
2018-10-05T02:47:21.434Z,0.00
2018-10-05T02:48:21.451Z,0.00
2018-10-05T02:49:22.238Z,0.00
2018-10-05T02:50:22.239Z,0.00
2018-10-05T02:51:21.322Z,0.00
2018-10-05T02:52:22.242Z,0.00
2018-10-05T02:53:21.792Z,0.00
2018-10-05T02:54:21.738Z,0.00
2018-10-05T02:55:21.205Z,0.00
2018-10-05T02:56:21.742Z,0.00
2018-10-05T02:57:21.740Z,0.00
2018-10-05T02:58:21.305Z,0.00
2018-10-05T02:59:21.739Z,0.00
2018-10-05T03:00:21.742Z,0.00
2018-10-05T03:01:21.739Z,0.00
2018-10-05T03:02:21.009Z,0.00
2018-10-05T03:03:21.294Z,0.00
2018-10-05T03:04:21.742Z,0.00
2018-10-05T03:05:21.741Z,0.00
2018-10-05T03:06:21.739Z,0.00
2018-10-05T03:07:21.740Z,0.00
2018-10-05T03:08:20.890Z,0.00
2018-10-05T03:09:21.779Z,0.00
2018-10-05T03:10:21.740Z,0.00
2018-10-05T03:11:21.773Z,0.00
2018-10-05T03:12:20.723Z,0.00
2018-10-05T03:13:20.746Z,0.00
2018-10-05T03:14:21.249Z,0.00
2018-10-05T03:15:20.639Z,0.00
2018-10-05T03:16:20.613Z,0.00
2018-10-05T03:17:20.626Z,0.00
2018-10-05T03:18:20.793Z,0.00
2018-10-05T03:19:20.616Z,0.00
2018-10-05T03:20:21.650Z,0.00
2018-10-05T03:21:20.517Z,0.00
2018-10-05T03:22:20.443Z,0.00
2018-10-05T03:23:21.242Z,0.00
2018-10-05T03:24:20.386Z,0.00
2018-10-05T03:25:20.403Z,0.00
2018-10-05T03:26:21.243Z,0.00
2018-10-05T03:27:20.299Z,0.00
2018-10-05T03:28:21.242Z,0.00
2018-10-05T03:29:20.752Z,0.00
2018-10-05T03:30:20.267Z,0.00
2018-10-05T03:31:20.189Z,0.00
2018-10-05T03:32:20.214Z,0.00
2018-10-05T03:33:20.751Z,0.00
2018-10-05T03:34:20.106Z,0.00
2018-10-05T03:35:20.122Z,0.00
2018-10-05T03:36:20.750Z,0.00
2018-10-05T03:37:20.746Z,0.00
2018-10-05T03:38:19.993Z,0.00
2018-10-05T03:39:20.757Z,0.00
2018-10-05T03:40:20.294Z,0.00
2018-10-05T03:41:20.750Z,0.00
2018-10-05T03:42:19.924Z,0.00
2018-10-05T03:43:19.850Z,0.00
2018-10-05T03:44:20.746Z,0.00
2018-10-05T03:45:20.747Z,0.00
2018-10-05T03:46:20.457Z,0.00
2018-10-05T03:47:19.739Z,0.00
2018-10-05T03:48:20.247Z,0.00
2018-10-05T03:49:19.686Z,0.00
2018-10-05T03:50:19.659Z,0.00
2018-10-05T03:51:19.678Z,0.00
2018-10-05T03:52:20.254Z,0.00
2018-10-05T03:53:19.570Z,0.00
2018-10-05T03:54:20.247Z,0.00
2018-10-05T03:55:19.518Z,0.00
2018-10-05T03:56:19.527Z,0.00
2018-10-05T03:57:19.804Z,0.00
2018-10-05T03:58:20.249Z,0.00
2018-10-05T03:59:20.253Z,0.00
2018-10-05T04:00:20.293Z,0.00
2018-10-05T04:01:19.810Z,0.00
2018-10-05T04:02:19.319Z,0.00
2018-10-05T04:03:20.251Z,0.00
2018-10-05T04:04:19.306Z,0.00
2018-10-05T04:05:19.750Z,0.00
2018-10-05T04:06:19.218Z,0.00
2018-10-05T04:07:19.751Z,0.00
2018-10-05T04:08:19.308Z,0.00
2018-10-05T04:09:19.755Z,0.00
2018-10-05T04:10:19.098Z,0.00
2018-10-05T04:11:19.772Z,0.00
2018-10-05T04:12:19.086Z,0.00
2018-10-05T04:13:19.770Z,0.00
2018-10-05T04:14:19.753Z,0.00
2018-10-05T04:15:19.792Z,0.00
2018-10-05T04:16:19.752Z,0.00
2018-10-05T04:17:18.938Z,0.00
2018-10-05T04:18:19.765Z,0.00
2018-10-05T04:19:18.887Z,0.00
2018-10-05T04:20:19.758Z,0.00
2018-10-05T04:21:18.787Z,0.00
2018-10-05T04:22:19.756Z,0.00
2018-10-05T04:23:18.801Z,0.00
2018-10-05T04:24:18.706Z,0.00
2018-10-05T04:25:18.721Z,0.00
2018-10-05T04:26:19.260Z,0.00
2018-10-05T04:27:18.764Z,0.00
2018-10-05T04:28:18.639Z,0.00
2018-10-05T04:29:18.567Z,0.00
2018-10-05T04:30:18.537Z,0.00
2018-10-05T04:31:18.514Z,0.00
2018-10-05T04:32:18.483Z,0.00
2018-10-05T04:33:18.500Z,0.00
2018-10-05T04:34:18.475Z,0.00
2018-10-05T04:35:18.419Z,0.00
2018-10-05T04:36:18.404Z,0.00
2018-10-05T04:37:19.257Z,0.00
2018-10-05T04:38:19.949Z,0.00
2018-10-05T04:39:18.290Z,0.00
2018-10-05T04:40:18.262Z,0.00
2018-10-05T04:41:18.312Z,0.00
2018-10-05T04:42:18.254Z,0.00
2018-10-05T04:43:18.219Z,0.00
2018-10-05T04:44:18.196Z,0.00
2018-10-05T04:45:18.126Z,0.00
2018-10-05T04:46:18.094Z,0.00
2018-10-05T04:47:18.064Z,0.00
2018-10-05T04:48:18.079Z,0.00
2018-10-05T04:49:18.056Z,0.00
2018-10-05T04:50:17.999Z,0.00
2018-10-05T04:51:17.952Z,0.00
2018-10-05T04:52:17.923Z,0.00
2018-10-05T04:53:17.904Z,0.00
2018-10-05T04:54:17.918Z,0.00
2018-10-05T04:55:17.840Z,0.00
2018-10-05T04:56:17.812Z,0.00
2018-10-05T04:57:17.786Z,0.00
2018-10-05T04:58:17.813Z,0.00
2018-10-05T04:59:17.775Z,0.00
2018-10-05T05:00:17.701Z,0.00
2018-10-05T05:01:17.673Z,0.00
2018-10-05T05:02:17.646Z,0.00
2018-10-05T05:03:17.629Z,0.00
2018-10-05T05:04:17.633Z,0.00
2018-10-05T05:05:17.567Z,0.00
2018-10-05T05:06:17.579Z,0.00
2018-10-05T05:07:18.262Z,5.63
2018-10-05T05:08:17.520Z,5.63
2018-10-05T05:09:17.820Z,5.63
2018-10-05T05:10:17.424Z,5.63
2018-10-05T05:11:17.438Z,5.63
2018-10-05T05:12:17.393Z,5.63
2018-10-05T05:13:17.339Z,5.63
2018-10-05T05:14:17.349Z,11.25
2018-10-05T05:15:17.332Z,11.25
2018-10-05T05:16:17.293Z,11.25
2018-10-05T05:17:17.228Z,11.25
2018-10-05T05:18:17.772Z,11.25
2018-10-05T05:19:17.171Z,16.88
2018-10-05T05:20:17.142Z,16.88
2018-10-05T05:21:17.167Z,16.88
2018-10-05T05:22:17.087Z,22.50
2018-10-05T05:23:17.062Z,22.50
2018-10-05T05:24:17.073Z,22.50
2018-10-05T05:25:17.004Z,28.13
2018-10-05T05:26:17.343Z,28.13
2018-10-05T05:27:16.946Z,28.13
2018-10-05T05:28:17.766Z,33.75
2018-10-05T05:29:16.931Z,33.75
2018-10-05T05:30:16.919Z,39.38
2018-10-05T05:31:17.765Z,39.38
2018-10-05T05:32:16.810Z,39.38
2018-10-05T05:33:17.803Z,45.00
2018-10-05T05:34:16.752Z,45.00
2018-10-05T05:35:16.766Z,50.63
2018-10-05T05:36:16.706Z,50.63
2018-10-05T05:37:16.713Z,50.63
2018-10-05T05:38:16.638Z,56.25
2018-10-05T05:39:17.271Z,61.88
2018-10-05T05:40:16.617Z,61.88
2018-10-05T05:41:16.621Z,61.88
2018-10-05T05:42:16.527Z,67.50
2018-10-05T05:43:16.502Z,67.50
2018-10-05T05:44:16.468Z,73.13
2018-10-05T05:45:16.455Z,73.13
2018-10-05T05:46:16.464Z,78.75
2018-10-05T05:47:16.383Z,78.75
2018-10-05T05:48:16.400Z,78.75
2018-10-05T05:49:16.339Z,78.75
2018-10-05T05:50:16.307Z,84.38
2018-10-05T05:51:16.270Z,84.38
2018-10-05T05:52:16.284Z,84.38
2018-10-05T05:53:16.215Z,84.38
2018-10-05T05:54:16.380Z,84.38
2018-10-05T05:55:16.165Z,90.00
2018-10-05T05:56:16.134Z,90.00
2018-10-05T05:57:16.101Z,90.00
2018-10-05T05:58:16.075Z,90.00
2018-10-05T05:59:16.327Z,95.63
2018-10-05T06:00:16.018Z,95.63
2018-10-05T06:01:16.841Z,95.63
2018-10-05T06:02:15.961Z,95.63
2018-10-05T06:03:15.932Z,95.63
2018-10-05T06:04:16.329Z,95.63
2018-10-05T06:05:15.927Z,101.25
2018-10-05T06:06:16.773Z,101.25
2018-10-05T06:07:15.897Z,101.25
2018-10-05T06:08:15.809Z,106.88
2018-10-05T06:09:15.800Z,106.88
2018-10-05T06:10:15.736Z,106.88
2018-10-05T06:11:16.273Z,106.88
2018-10-05T06:12:15.716Z,112.50
2018-10-05T06:13:15.648Z,112.50
2018-10-05T06:14:15.660Z,112.50
2018-10-05T06:15:15.592Z,118.13
2018-10-05T06:16:15.648Z,118.13
2018-10-05T06:17:15.529Z,118.13
2018-10-05T06:18:15.554Z,118.13
2018-10-05T06:19:15.524Z,123.75
2018-10-05T06:20:15.441Z,123.75
2018-10-05T06:21:15.427Z,129.38
2018-10-05T06:22:15.573Z,129.38
2018-10-05T06:23:15.356Z,129.38
2018-10-05T06:24:15.374Z,135.00
2018-10-05T06:25:15.308Z,135.00
2018-10-05T06:26:15.272Z,135.00
2018-10-05T06:27:15.271Z,135.00
2018-10-05T06:28:15.218Z,135.00
2018-10-05T06:29:15.228Z,135.00
2018-10-05T06:30:15.328Z,140.63
2018-10-05T06:31:15.272Z,140.63
2018-10-05T06:32:15.099Z,140.63
2018-10-05T06:33:15.133Z,140.63
2018-10-05T06:34:15.042Z,140.63
2018-10-05T06:35:15.104Z,140.63
2018-10-05T06:36:15.779Z,140.63
2018-10-05T06:37:14.959Z,146.25
2018-10-05T06:38:14.971Z,146.25
2018-10-05T06:39:14.942Z,146.25
2018-10-05T06:40:14.908Z,146.25
2018-10-05T06:41:14.842Z,146.25
2018-10-05T06:42:15.057Z,146.25
2018-10-05T06:43:14.801Z,146.25
2018-10-05T06:44:14.749Z,151.88
2018-10-05T06:45:14.808Z,151.88
2018-10-05T06:46:15.282Z,151.88
2018-10-05T06:47:14.841Z,151.88
2018-10-05T06:48:14.639Z,151.88
2018-10-05T06:49:14.609Z,151.88
2018-10-05T06:50:14.666Z,157.50
2018-10-05T06:51:14.545Z,157.50
2018-10-05T06:52:14.519Z,157.50
2018-10-05T06:53:14.541Z,157.50
2018-10-05T06:54:14.460Z,157.50
2018-10-05T06:55:14.476Z,157.50
2018-10-05T06:56:14.418Z,157.50
2018-10-05T06:57:14.383Z,157.50
2018-10-05T06:58:14.347Z,163.13
2018-10-05T06:59:14.316Z,163.13
2018-10-05T07:00:14.328Z,163.13
2018-10-05T07:01:14.276Z,163.13
2018-10-05T07:02:14.232Z,163.13
2018-10-05T07:03:14.204Z,163.13
2018-10-05T07:04:14.277Z,163.13
2018-10-05T07:05:14.203Z,163.13
2018-10-05T07:06:14.120Z,163.13
2018-10-05T07:07:14.092Z,163.13
2018-10-05T07:08:14.065Z,168.75
2018-10-05T07:09:14.044Z,168.75
2018-10-05T07:10:14.048Z,168.75
2018-10-05T07:11:13.992Z,168.75
2018-10-05T07:12:13.946Z,168.75
2018-10-05T07:13:13.923Z,168.75
2018-10-05T07:14:13.893Z,168.75
2018-10-05T07:15:13.918Z,168.75
2018-10-05T07:16:13.838Z,168.75
2018-10-05T07:17:13.801Z,174.38
2018-10-05T07:18:13.774Z,174.38
2018-10-05T07:19:13.774Z,174.38
2018-10-05T07:20:13.765Z,174.38
2018-10-05T07:21:13.835Z,174.38
2018-10-05T07:22:13.712Z,174.38
2018-10-05T07:23:13.678Z,174.38
2018-10-05T07:24:13.603Z,174.38
2018-10-05T07:25:13.577Z,174.38
2018-10-05T07:26:13.555Z,174.38
2018-10-05T07:27:13.516Z,180.00
2018-10-05T07:28:13.546Z,180.00
2018-10-05T07:29:13.461Z,180.00
2018-10-05T07:30:13.430Z,180.00
2018-10-05T07:31:13.406Z,180.00
2018-10-05T07:32:13.379Z,180.00
2018-10-05T07:33:13.852Z,180.00
2018-10-05T07:34:13.325Z,180.00
2018-10-05T07:35:13.289Z,180.00
2018-10-05T07:36:13.260Z,180.00
2018-10-05T07:37:13.856Z,180.00
2018-10-05T07:38:13.301Z,180.00
2018-10-05T07:39:13.177Z,180.00
2018-10-05T07:40:13.156Z,180.00
2018-10-05T07:41:13.787Z,180.00
2018-10-05T07:42:13.099Z,185.63
2018-10-05T07:43:13.339Z,185.63
2018-10-05T07:44:13.041Z,185.63
2018-10-05T07:45:13.345Z,185.63
2018-10-05T07:46:12.982Z,185.63
2018-10-05T07:47:12.953Z,185.63
2018-10-05T07:48:12.940Z,185.63
2018-10-05T07:49:12.944Z,185.63
2018-10-05T07:50:12.880Z,185.63
2018-10-05T07:51:12.842Z,185.63
2018-10-05T07:52:12.819Z,185.63
2018-10-05T07:53:12.793Z,185.63
2018-10-05T07:54:12.818Z,185.63
2018-10-05T07:55:12.726Z,185.63
2018-10-05T07:56:13.292Z,185.63
2018-10-05T07:57:12.678Z,191.25
2018-10-05T07:58:12.654Z,191.25
2018-10-05T07:59:12.665Z,191.25
2018-10-05T08:00:12.634Z,191.25
2018-10-05T08:01:12.565Z,191.25
2018-10-05T08:02:12.544Z,191.25
2018-10-05T08:03:12.510Z,191.25
2018-10-05T08:04:12.524Z,191.25
2018-10-05T08:05:12.454Z,191.25
2018-10-05T08:06:12.470Z,191.25
2018-10-05T08:07:12.395Z,191.25
2018-10-05T08:08:12.388Z,191.25
2018-10-05T08:09:12.342Z,191.25
2018-10-05T08:10:12.385Z,191.25
2018-10-05T08:11:12.308Z,191.25
2018-10-05T08:12:12.337Z,191.25
2018-10-05T08:13:12.232Z,191.25
2018-10-05T08:14:12.210Z,191.25
2018-10-05T08:15:12.225Z,191.25
2018-10-05T08:16:12.150Z,191.25
2018-10-05T08:17:12.132Z,185.63
2018-10-05T08:18:12.093Z,191.25
2018-10-05T08:19:12.065Z,185.63
2018-10-05T08:20:12.108Z,185.63
2018-10-05T08:21:12.102Z,185.63
2018-10-05T08:22:12.029Z,185.63
2018-10-05T08:23:11.988Z,185.63
2018-10-05T08:24:11.933Z,185.63
2018-10-05T08:25:11.986Z,185.63
2018-10-05T08:26:11.875Z,185.63
2018-10-05T08:27:11.928Z,185.63
2018-10-05T08:28:11.824Z,185.63
2018-10-05T08:29:11.795Z,191.25
2018-10-05T08:30:11.830Z,191.25
2018-10-05T08:31:11.738Z,185.63
2018-10-05T08:32:11.724Z,185.63
2018-10-05T08:33:11.687Z,185.63
2018-10-05T08:34:11.667Z,191.25
2018-10-05T08:35:11.674Z,191.25
2018-10-05T08:36:11.603Z,191.25
2018-10-05T08:37:11.578Z,191.25
2018-10-05T08:38:11.555Z,191.25
2018-10-05T08:39:11.860Z,185.63
2018-10-05T08:40:11.578Z,185.63
2018-10-05T08:41:11.474Z,185.63
2018-10-05T08:42:11.487Z,185.63
2018-10-05T08:43:11.420Z,185.63
2018-10-05T08:44:11.392Z,185.63
2018-10-05T08:45:11.361Z,185.63
2018-10-05T08:46:11.858Z,191.25
2018-10-05T08:47:11.307Z,191.25
2018-10-05T08:48:11.323Z,191.25
2018-10-05T08:49:11.251Z,191.25
2018-10-05T08:50:11.228Z,191.25
2018-10-05T08:51:11.234Z,191.25
2018-10-05T08:52:11.251Z,191.25
2018-10-05T08:53:11.193Z,191.25
2018-10-05T08:54:11.128Z,191.25
2018-10-05T08:55:11.091Z,191.25
2018-10-05T08:56:11.067Z,191.25
2018-10-05T08:57:11.083Z,191.25
2018-10-05T08:58:11.803Z,191.25
2018-10-05T08:59:10.987Z,191.25
2018-10-05T09:00:11.063Z,191.25
2018-10-05T09:01:10.950Z,191.25
2018-10-05T09:02:10.936Z,191.25
2018-10-05T09:03:10.938Z,191.25
2018-10-05T09:04:10.852Z,191.25
2018-10-05T09:05:10.825Z,191.25
2018-10-05T09:06:10.800Z,191.25
2018-10-05T09:07:10.779Z,191.25
2018-10-05T09:08:10.784Z,191.25
2018-10-05T09:09:10.763Z,191.25
2018-10-05T09:10:10.697Z,191.25
2018-10-05T09:11:10.730Z,191.25
2018-10-05T09:12:11.505Z,191.25
2018-10-05T09:13:10.619Z,191.25
2018-10-05T09:14:10.631Z,191.25
2018-10-05T09:15:10.605Z,191.25
2018-10-05T09:16:10.534Z,191.25
2018-10-05T09:17:10.508Z,191.25
2018-10-05T09:18:10.506Z,191.25
2018-10-05T09:19:10.514Z,191.25
2018-10-05T09:20:11.311Z,191.25
2018-10-05T09:21:10.406Z,191.25
2018-10-05T09:22:10.377Z,191.25
2018-10-05T09:23:10.394Z,191.25
2018-10-05T09:24:10.449Z,191.25
2018-10-05T09:25:10.297Z,191.25
2018-10-05T09:26:10.391Z,191.25
2018-10-05T09:27:10.303Z,191.25
2018-10-05T09:28:10.275Z,191.25
2018-10-05T09:29:10.230Z,191.25
2018-10-05T09:30:10.217Z,191.25
2018-10-05T09:31:10.139Z,191.25
2018-10-05T09:32:10.117Z,191.25
2018-10-05T09:33:10.085Z,191.25
2018-10-05T09:34:10.063Z,191.25
2018-10-05T09:35:10.090Z,191.25
2018-10-05T09:36:10.014Z,191.25
2018-10-05T09:37:09.982Z,191.25
2018-10-05T09:38:09.958Z,191.25
2018-10-05T09:39:09.941Z,191.25
2018-10-05T09:40:09.964Z,191.25
2018-10-05T09:41:09.879Z,196.88
2018-10-05T09:42:09.857Z,196.88
2018-10-05T09:43:09.826Z,196.88
2018-10-05T09:44:10.318Z,196.88
2018-10-05T09:45:09.840Z,196.88
2018-10-05T09:46:09.752Z,196.88
2018-10-05T09:47:09.723Z,196.88
2018-10-05T09:48:09.700Z,196.88
2018-10-05T09:49:09.672Z,196.88
2018-10-05T09:50:09.689Z,196.88
2018-10-05T09:51:09.623Z,196.88
2018-10-05T09:52:09.602Z,196.88
2018-10-05T09:53:09.573Z,196.88
2018-10-05T09:54:09.547Z,196.88
2018-10-05T09:55:09.585Z,196.88
2018-10-05T09:56:09.492Z,196.88
2018-10-05T09:57:09.480Z,196.88
2018-10-05T09:58:10.319Z,196.88
2018-10-05T09:59:09.416Z,196.88
2018-10-05T10:00:09.518Z,196.88
2018-10-05T10:01:09.432Z,196.88
2018-10-05T10:02:09.341Z,196.88
2018-10-05T10:03:09.316Z,196.88
2018-10-05T10:04:09.296Z,196.88
2018-10-05T10:05:09.266Z,196.88
2018-10-05T10:06:09.386Z,196.88
2018-10-05T10:07:09.213Z,196.88
2018-10-05T10:08:09.308Z,196.88
2018-10-05T10:09:09.169Z,196.88
2018-10-05T10:10:09.821Z,196.88
2018-10-05T10:11:09.158Z,196.88
2018-10-05T10:12:09.085Z,196.88
2018-10-05T10:13:09.058Z,196.88
2018-10-05T10:14:09.036Z,196.88
2018-10-05T10:15:09.011Z,196.88
2018-10-05T10:16:09.375Z,196.88
2018-10-05T10:17:09.004Z,196.88
2018-10-05T10:18:08.936Z,196.88
2018-10-05T10:19:08.916Z,196.88
2018-10-05T10:20:08.883Z,196.88
2018-10-05T10:21:08.860Z,196.88
2018-10-05T10:22:09.377Z,196.88
2018-10-05T10:23:08.808Z,196.88
2018-10-05T10:24:08.784Z,196.88
2018-10-05T10:25:08.756Z,196.88
2018-10-05T10:26:08.733Z,196.88
2018-10-05T10:27:08.880Z,196.88
2018-10-05T10:28:08.731Z,196.88
2018-10-05T10:29:08.768Z,196.88
2018-10-05T10:30:08.633Z,196.88
2018-10-05T10:31:08.609Z,196.88
2018-10-05T10:32:08.625Z,196.88
2018-10-05T10:33:08.559Z,202.50
2018-10-05T10:34:08.535Z,202.50
2018-10-05T10:35:08.507Z,202.50
2018-10-05T10:36:08.485Z,202.50
2018-10-05T10:37:08.498Z,202.50
2018-10-05T10:38:08.489Z,202.50
2018-10-05T10:39:08.405Z,202.50
2018-10-05T10:40:08.383Z,202.50
2018-10-05T10:41:08.358Z,202.50
2018-10-05T10:42:08.335Z,202.50
2018-10-05T10:43:08.351Z,202.50
2018-10-05T10:44:08.287Z,202.50
2018-10-05T10:45:08.271Z,202.50
2018-10-05T10:46:08.234Z,202.50
2018-10-05T10:47:08.208Z,202.50
2018-10-05T10:48:08.307Z,202.50
2018-10-05T10:49:08.162Z,202.50
2018-10-05T10:50:08.144Z,202.50
2018-10-05T10:51:08.111Z,202.50
2018-10-05T10:52:08.082Z,202.50
2018-10-05T10:53:08.144Z,202.50
2018-10-05T10:54:08.077Z,202.50
2018-10-05T10:55:08.107Z,202.50
2018-10-05T10:56:07.990Z,202.50
2018-10-05T10:57:07.966Z,202.50
2018-10-05T10:58:07.982Z,202.50
2018-10-05T10:59:07.972Z,202.50
2018-10-05T11:00:07.890Z,202.50
2018-10-05T11:01:07.862Z,202.50
2018-10-05T11:02:07.839Z,202.50
2018-10-05T11:03:07.907Z,208.13
2018-10-05T11:04:07.945Z,202.50
2018-10-05T11:05:07.765Z,202.50
2018-10-05T11:06:07.739Z,202.50
2018-10-05T11:07:07.713Z,202.50
2018-10-05T11:08:07.688Z,202.50
2018-10-05T11:09:07.702Z,208.13
2018-10-05T11:10:07.693Z,202.50
2018-10-05T11:11:07.670Z,202.50
2018-10-05T11:12:07.598Z,202.50
2018-10-05T11:13:07.612Z,202.50
2018-10-05T11:14:07.542Z,202.50
2018-10-05T11:15:07.567Z,202.50
2018-10-05T11:16:07.507Z,202.50
2018-10-05T11:17:07.531Z,202.50
2018-10-05T11:18:07.494Z,202.50
2018-10-05T11:19:07.470Z,202.50
2018-10-05T11:20:07.402Z,202.50
2018-10-05T11:21:07.372Z,202.50
2018-10-05T11:22:07.350Z,202.50
2018-10-05T11:23:07.371Z,202.50
2018-10-05T11:24:07.343Z,202.50
2018-10-05T11:25:07.283Z,202.50
2018-10-05T11:26:07.397Z,202.50
2018-10-05T11:27:07.224Z,202.50
2018-10-05T11:28:07.208Z,202.50
2018-10-05T11:29:07.180Z,202.50
2018-10-05T11:30:07.157Z,202.50
2018-10-05T11:31:07.181Z,202.50
2018-10-05T11:32:07.103Z,202.50
2018-10-05T11:33:07.845Z,202.50
2018-10-05T11:34:07.057Z,196.88
2018-10-05T11:35:07.094Z,196.88
2018-10-05T11:36:07.050Z,196.88
2018-10-05T11:37:06.983Z,196.88
2018-10-05T11:38:06.958Z,196.88
2018-10-05T11:39:06.934Z,196.88
2018-10-05T11:40:06.909Z,196.88
2018-10-05T11:41:06.932Z,196.88
2018-10-05T11:42:06.873Z,196.88
2018-10-05T11:43:07.346Z,196.88
2018-10-05T11:44:06.814Z,196.88
2018-10-05T11:45:06.831Z,196.88
2018-10-05T11:46:06.814Z,196.88
2018-10-05T11:47:06.742Z,196.88
2018-10-05T11:48:07.342Z,196.88
2018-10-05T11:49:06.694Z,196.88
2018-10-05T11:50:06.738Z,196.88
2018-10-05T11:51:06.649Z,196.88
2018-10-05T11:52:06.619Z,196.88
2018-10-05T11:53:06.603Z,196.88
2018-10-05T11:54:07.342Z,196.88
2018-10-05T11:55:07.850Z,196.88
2018-10-05T11:56:06.536Z,196.88
2018-10-05T11:57:06.544Z,196.88
2018-10-05T11:58:06.479Z,196.88
2018-10-05T11:59:06.504Z,196.88
2018-10-05T12:00:06.427Z,196.88
2018-10-05T12:01:06.404Z,196.88
2018-10-05T12:02:06.423Z,196.88
2018-10-05T12:03:06.357Z,196.88
2018-10-05T12:04:06.397Z,196.88
2018-10-05T12:05:06.314Z,196.88
2018-10-05T12:06:06.287Z,196.88
2018-10-05T12:07:06.301Z,196.88
2018-10-05T12:08:06.240Z,196.88
2018-10-05T12:09:06.218Z,196.88
2018-10-05T12:10:06.402Z,196.88
2018-10-05T12:11:06.169Z,196.88
2018-10-05T12:12:06.190Z,196.88
2018-10-05T12:13:06.116Z,196.88
2018-10-05T12:14:06.851Z,196.88
2018-10-05T12:15:06.415Z,196.88
2018-10-05T12:16:06.069Z,196.88
2018-10-05T12:17:06.024Z,196.88
2018-10-05T12:18:06.005Z,196.88
2018-10-05T12:19:05.974Z,196.88
2018-10-05T12:20:05.993Z,196.88
2018-10-05T12:21:05.937Z,196.88
2018-10-05T12:22:05.905Z,196.88
2018-10-05T12:23:05.928Z,196.88
2018-10-05T12:24:05.856Z,196.88
2018-10-05T12:25:05.832Z,196.88
2018-10-05T12:26:05.844Z,196.88
2018-10-05T12:27:06.408Z,196.88
2018-10-05T12:28:05.762Z,196.88
2018-10-05T12:29:05.744Z,196.88
2018-10-05T12:30:05.738Z,196.88
2018-10-05T12:31:05.738Z,196.88
2018-10-05T12:32:06.357Z,196.88
2018-10-05T12:33:05.655Z,196.88
2018-10-05T12:34:05.622Z,196.88
2018-10-05T12:35:05.595Z,196.88
2018-10-05T12:36:05.714Z,196.88
2018-10-05T12:37:05.604Z,196.88
2018-10-05T12:38:05.587Z,196.88
2018-10-05T12:39:05.501Z,196.88
2018-10-05T12:40:05.479Z,196.88
2018-10-05T12:41:05.458Z,196.88
2018-10-05T12:42:05.506Z,196.88
2018-10-05T12:43:05.455Z,196.88
2018-10-05T12:44:05.387Z,196.88
2018-10-05T12:45:05.363Z,196.88
2018-10-05T12:46:06.264Z,196.88
2018-10-05T12:47:05.313Z,196.88
2018-10-05T12:48:05.347Z,196.88
2018-10-05T12:49:05.274Z,196.88
2018-10-05T12:50:05.258Z,196.88
2018-10-05T12:51:05.216Z,196.88
2018-10-05T12:52:05.195Z,196.88